createdAt,value
2023-08-10T00:00:29.008Z,4.00
2023-08-10T00:02:56.631Z,3.70
2023-08-10T00:05:23.895Z,3.40
2023-08-10T00:07:50.982Z,4.13
2023-08-10T00:10:18.238Z,3.53
2023-08-10T00:12:46.312Z,3.78
2023-08-10T00:15:13.418Z,3.50
2023-08-10T00:17:40.684Z,3.90
2023-08-10T00:20:11.474Z,3.97
2023-08-10T00:22:39.380Z,4.20
2023-08-10T00:25:07.018Z,4.30
2023-08-10T00:27:39.882Z,3.38
2023-08-10T00:30:09.044Z,3.45
2023-08-10T00:32:37.402Z,3.83
2023-08-10T00:35:05.092Z,3.85
2023-08-10T00:37:32.602Z,3.60
2023-08-10T00:39:59.677Z,3.65
2023-08-10T00:42:27.261Z,3.47
2023-08-10T00:44:55.522Z,3.15
2023-08-10T00:47:22.923Z,3.58
2023-08-10T00:49:50.070Z,3.55
2023-08-10T00:52:17.535Z,4.00
2023-08-10T00:54:44.941Z,3.90
2023-08-10T00:57:12.429Z,3.95
2023-08-10T00:59:41.301Z,3.97
2023-08-10T01:02:09.176Z,3.70
2023-08-10T01:04:36.608Z,3.85
2023-08-10T01:07:18.578Z,4.18
2023-08-10T01:10:08.358Z,3.40
2023-08-10T01:12:53.287Z,4.15
2023-08-10T01:15:25.883Z,3.95
2023-08-10T01:17:56.354Z,4.10
2023-08-10T01:20:25.198Z,4.07
2023-08-10T01:22:58.531Z,3.50
2023-08-10T01:25:26.781Z,3.70
2023-08-10T01:27:54.313Z,4.03
2023-08-10T01:30:22.269Z,3.70
2023-08-10T01:32:52.827Z,3.45
2023-08-10T01:35:20.196Z,3.63
2023-08-10T01:37:47.715Z,3.75
2023-08-10T01:40:15.205Z,3.40
2023-08-10T01:42:44.094Z,3.47
2023-08-10T01:45:30.776Z,3.67
2023-08-10T01:48:28.298Z,3.53
2023-08-10T01:50:59.221Z,3.90
2023-08-10T01:53:30.991Z,3.47
2023-08-10T01:55:59.499Z,3.90
2023-08-10T01:58:26.693Z,3.88
2023-08-10T02:00:54.060Z,3.90
2023-08-10T02:03:21.285Z,3.78
2023-08-10T02:05:48.846Z,3.20
2023-08-10T02:08:16.069Z,3.95
2023-08-10T02:10:43.408Z,4.03
2023-08-10T02:13:10.793Z,3.92
2023-08-10T02:15:38.088Z,3.60
2023-08-10T02:18:06.273Z,3.78
2023-08-10T02:20:33.459Z,3.47
2023-08-10T02:23:00.524Z,3.58
2023-08-10T02:25:27.945Z,3.60
2023-08-10T02:27:55.122Z,3.42
2023-08-10T02:30:23.255Z,4.00
2023-08-10T02:32:50.595Z,3.53
2023-08-10T02:35:17.775Z,3.63
2023-08-10T02:37:45.737Z,3.55
2023-08-10T02:40:13.257Z,3.85
2023-08-10T02:42:41.552Z,4.10
2023-08-10T02:45:11.252Z,3.88
2023-08-10T02:47:38.641Z,3.72
2023-08-10T02:50:07.276Z,3.63
2023-08-10T02:52:35.298Z,4.03
2023-08-10T02:55:02.949Z,3.67
2023-08-10T02:57:32.261Z,3.88
2023-08-10T03:00:00.155Z,3.75
2023-08-10T03:02:29.770Z,4.10
2023-08-10T03:04:59.248Z,3.65
2023-08-10T03:07:27.933Z,3.72
2023-08-10T03:09:56.509Z,3.65
2023-08-10T03:12:26.098Z,3.97
2023-08-10T03:14:53.167Z,3.88
2023-08-10T03:17:20.686Z,3.85
2023-08-10T03:19:49.553Z,3.72
2023-08-10T03:22:18.078Z,3.95
2023-08-10T03:24:45.198Z,3.97
2023-08-10T03:27:12.340Z,3.90
2023-08-10T03:29:39.462Z,7.82
2023-08-10T03:32:07.623Z,6.75
2023-08-10T03:34:34.847Z,5.05
2023-08-10T03:37:03.125Z,4.80
2023-08-10T03:39:30.477Z,4.30
2023-08-10T03:41:57.712Z,4.18
2023-08-10T03:44:24.908Z,4.30
2023-08-10T03:46:54.747Z,4.50
2023-08-10T03:49:24.232Z,3.88
2023-08-10T03:51:51.898Z,4.05
2023-08-10T03:54:19.197Z,4.10
2023-08-10T03:56:46.263Z,3.80
2023-08-10T03:59:14.069Z,4.03
2023-08-10T04:01:42.751Z,4.40
2023-08-10T04:04:09.881Z,4.00
2023-08-10T04:06:37.395Z,4.00
2023-08-10T04:09:06.230Z,3.92
2023-08-10T04:11:33.907Z,4.00
2023-08-10T04:14:01.068Z,4.55
2023-08-10T04:16:28.339Z,4.07
2023-08-10T04:18:55.430Z,4.13
2023-08-10T04:21:22.614Z,4.13
2023-08-10T04:23:49.751Z,4.45
2023-08-10T04:26:16.820Z,4.40
2023-08-10T04:28:44.116Z,4.25
2023-08-10T04:31:11.498Z,4.57
2023-08-10T04:33:38.665Z,5.00
2023-08-10T04:36:06.130Z,4.35
2023-08-10T04:38:33.865Z,4.55
2023-08-10T04:41:01.051Z,4.60
2023-08-10T04:43:28.147Z,4.50
2023-08-10T04:45:55.266Z,3.83
2023-08-10T04:48:22.338Z,4.25
2023-08-10T04:50:49.414Z,4.63
2023-08-10T04:53:16.509Z,5.25
2023-08-10T04:55:44.599Z,4.45
2023-08-10T04:58:11.769Z,4.55
2023-08-10T05:00:38.896Z,4.35
2023-08-10T05:03:06.032Z,4.63
2023-08-10T05:05:33.946Z,4.70
2023-08-10T05:08:01.225Z,4.38
2023-08-10T05:10:28.615Z,3.88
2023-08-10T05:12:55.668Z,4.75
2023-08-10T05:15:22.790Z,4.43
2023-08-10T05:17:49.929Z,4.15
2023-08-10T05:20:17.057Z,4.30
2023-08-10T05:22:44.501Z,4.47
2023-08-10T05:25:15.241Z,4.82
2023-08-10T05:27:44.319Z,4.60
2023-08-10T05:30:17.821Z,4.80
2023-08-10T05:32:45.858Z,4.30
2023-08-10T05:35:15.681Z,4.03
2023-08-10T05:37:43.044Z,3.85
2023-08-10T05:40:12.473Z,4.07
2023-08-10T05:42:41.328Z,4.07
2023-08-10T05:45:16.877Z,4.07
2023-08-10T05:47:45.523Z,4.28
2023-08-10T05:50:15.955Z,4.25
2023-08-10T05:52:44.487Z,4.55
2023-08-10T05:55:14.393Z,4.05
2023-08-10T05:57:42.580Z,3.90
2023-08-10T06:00:13.796Z,4.30
2023-08-10T06:02:41.989Z,3.85
2023-08-10T06:05:09.525Z,4.28
2023-08-10T06:07:37.891Z,3.97
2023-08-10T06:10:06.060Z,4.05
2023-08-10T06:12:33.272Z,4.10
2023-08-10T06:15:01.198Z,3.78
2023-08-10T06:17:28.369Z,4.20
2023-08-10T06:19:58.896Z,4.50
2023-08-10T06:22:26.444Z,4.40
2023-08-10T06:24:54.040Z,4.30
2023-08-10T06:27:21.183Z,4.43
2023-08-10T06:29:48.255Z,4.07
2023-08-10T06:32:15.358Z,4.43
2023-08-10T06:34:43.122Z,3.88
2023-08-10T06:37:11.453Z,4.10
2023-08-10T06:39:38.799Z,4.03
2023-08-10T06:42:06.369Z,4.07
2023-08-10T06:44:36.848Z,4.05
2023-08-10T06:47:05.257Z,3.63
2023-08-10T06:49:32.974Z,3.70
2023-08-10T06:52:00.612Z,3.65
2023-08-10T06:54:28.652Z,4.18
2023-08-10T06:56:55.974Z,3.92
2023-08-10T06:59:23.146Z,3.35
2023-08-10T07:01:50.486Z,3.78
2023-08-10T07:04:18.977Z,3.30
2023-08-10T07:06:46.098Z,3.38
2023-08-10T07:09:13.441Z,3.30
2023-08-10T07:11:40.566Z,3.60
2023-08-10T07:14:07.860Z,3.35
2023-08-10T07:16:35.040Z,3.58
2023-08-10T07:19:02.211Z,3.58
2023-08-10T07:21:29.359Z,3.83
2023-08-10T07:23:57.528Z,3.78
2023-08-10T07:26:25.127Z,3.90
2023-08-10T07:28:52.417Z,4.10
2023-08-10T07:31:20.937Z,3.90
2023-08-10T07:33:48.225Z,3.95
2023-08-10T07:36:15.286Z,4.13
2023-08-10T07:38:43.213Z,3.58
2023-08-10T07:41:11.245Z,3.40
2023-08-10T07:43:38.332Z,4.18
2023-08-10T07:46:05.494Z,3.70
2023-08-10T07:48:32.706Z,3.45
2023-08-10T07:51:00.211Z,3.63
2023-08-10T07:53:29.637Z,3.97
2023-08-10T07:55:57.481Z,3.55
2023-08-10T07:58:24.621Z,4.47
2023-08-10T08:00:51.873Z,3.83
2023-08-10T08:03:19.345Z,3.78
2023-08-10T08:05:46.760Z,4.10
2023-08-10T08:08:14.121Z,3.55
2023-08-10T08:10:42.687Z,3.55
2023-08-10T08:13:09.889Z,3.47
2023-08-10T08:15:37.488Z,3.67
2023-08-10T08:18:42.170Z,3.53
2023-08-10T08:21:13.813Z,4.00
2023-08-10T08:23:41.231Z,4.25
2023-08-10T08:26:08.665Z,4.57
2023-08-10T08:28:35.962Z,4.70
2023-08-10T08:31:03.170Z,4.55
2023-08-10T08:33:31.041Z,4.10
2023-08-10T08:35:58.323Z,3.80
2023-08-10T08:38:26.272Z,3.33
2023-08-10T08:40:56.254Z,3.40
2023-08-10T08:43:23.900Z,3.55
2023-08-10T08:45:51.262Z,3.45
2023-08-10T08:48:19.327Z,3.35
2023-08-10T08:50:47.438Z,4.45
2023-08-10T08:53:16.313Z,4.10
2023-08-10T08:55:43.608Z,3.78
2023-08-10T08:58:10.884Z,4.32
2023-08-10T09:00:40.573Z,3.70
2023-08-10T09:03:07.801Z,3.88
2023-08-10T09:05:35.130Z,3.75
2023-08-10T09:08:02.683Z,3.63
2023-08-10T09:10:30.697Z,3.40
2023-08-10T09:12:57.842Z,3.42
2023-08-10T09:15:28.467Z,3.28
2023-08-10T09:17:55.691Z,3.30
2023-08-10T09:20:28.207Z,3.25
2023-08-10T09:22:58.279Z,3.55
2023-08-10T09:25:26.256Z,3.15
2023-08-10T09:27:54.477Z,3.75
2023-08-10T09:30:21.959Z,3.88
2023-08-10T09:32:49.188Z,3.63
2023-08-10T09:35:20.478Z,3.50
2023-08-10T09:37:49.052Z,3.28
2023-08-10T09:40:17.797Z,3.22
2023-08-10T09:42:45.062Z,3.10
2023-08-10T09:45:17.116Z,3.30
2023-08-10T09:47:44.567Z,3.60
2023-08-10T09:50:18.773Z,3.40
2023-08-10T09:52:46.732Z,3.00
2023-08-10T09:55:15.896Z,3.30
2023-08-10T09:57:47.294Z,3.22
2023-08-10T10:00:24.938Z,3.25
2023-08-10T10:02:52.709Z,3.00
2023-08-10T10:07:51.443Z,2.97
2023-08-10T10:10:19.878Z,3.10
2023-08-10T10:12:50.521Z,3.15
2023-08-10T10:15:20.056Z,3.05
2023-08-10T10:17:52.451Z,2.80
2023-08-10T10:20:21.176Z,2.90
2023-08-10T10:22:48.617Z,3.60
2023-08-10T10:25:18.899Z,3.15
2023-08-10T10:27:50.420Z,2.85
2023-08-10T10:30:19.444Z,2.58
2023-08-10T10:32:53.336Z,3.60
2023-08-10T10:35:25.728Z,3.20
2023-08-10T10:37:57.494Z,3.30
2023-08-10T10:40:25.804Z,3.10
2023-08-10T10:43:04.901Z,3.05
2023-08-10T10:45:40.531Z,3.22
2023-08-10T10:48:10.516Z,3.58
2023-08-10T10:50:37.786Z,3.50
2023-08-10T10:53:14.433Z,3.05
2023-08-10T10:55:44.138Z,3.00
2023-08-10T10:58:13.555Z,2.95
2023-08-10T11:00:42.430Z,2.90
2023-08-10T11:03:11.312Z,2.78
2023-08-10T11:05:39.221Z,2.88
2023-08-10T11:08:07.892Z,2.80
2023-08-10T11:10:38.282Z,2.90
2023-08-10T11:13:07.219Z,3.15
2023-08-10T11:15:35.859Z,3.25
2023-08-10T11:18:11.140Z,2.95
2023-08-10T11:20:46.471Z,2.90
2023-08-10T11:23:13.673Z,2.70
2023-08-10T11:25:51.464Z,3.00
2023-08-10T11:28:24.840Z,2.90
2023-08-10T11:30:52.137Z,2.80
2023-08-10T11:33:20.819Z,2.90
2023-08-10T11:35:52.984Z,2.88
2023-08-10T11:38:24.612Z,2.50
2023-08-10T11:40:51.990Z,3.08
2023-08-10T11:43:22.360Z,3.10
2023-08-10T11:45:49.767Z,2.80
2023-08-10T11:48:20.647Z,2.80
2023-08-10T11:50:48.165Z,3.20
2023-08-10T11:53:20.503Z,3.03
2023-08-10T11:55:50.581Z,3.10
2023-08-10T11:58:20.773Z,3.80
2023-08-10T12:00:55.091Z,2.83
2023-08-10T12:03:30.338Z,3.58
2023-08-10T12:06:06.992Z,3.08
2023-08-10T12:08:37.962Z,2.75
2023-08-10T12:11:15.867Z,3.50
2023-08-10T12:13:46.134Z,3.33
2023-08-10T12:16:15.478Z,3.33
2023-08-10T12:18:42.735Z,2.58
2023-08-10T12:21:09.891Z,2.60
2023-08-10T12:23:37.081Z,2.75
2023-08-10T12:26:04.172Z,2.60
2023-08-10T12:28:31.476Z,2.67
2023-08-10T12:30:58.562Z,2.60
2023-08-10T12:33:25.756Z,2.97
2023-08-10T12:35:53.503Z,3.10
2023-08-10T12:38:21.668Z,3.00
2023-08-10T12:40:48.861Z,2.78
2023-08-10T12:43:16.165Z,2.78
2023-08-10T12:45:43.238Z,2.80
2023-08-10T12:48:10.415Z,2.80
2023-08-10T12:50:37.766Z,2.75
2023-08-10T12:53:05.220Z,2.97
2023-08-10T12:55:33.560Z,4.20
2023-08-10T12:58:00.844Z,3.10
2023-08-10T13:00:27.977Z,3.40
2023-08-10T13:02:55.201Z,3.10
2023-08-10T13:05:22.372Z,3.00
2023-08-10T13:07:49.437Z,3.58
2023-08-10T13:10:16.847Z,2.78
2023-08-10T13:12:47.296Z,3.03
2023-08-10T13:15:14.526Z,3.03
2023-08-10T13:17:41.613Z,2.92
2023-08-10T13:20:09.512Z,2.80
2023-08-10T13:22:38.237Z,3.00
2023-08-10T13:25:07.428Z,3.22
2023-08-10T13:27:34.919Z,3.00
2023-08-10T13:30:02.971Z,3.50
2023-08-10T13:32:32.907Z,3.67
2023-08-10T13:35:00.029Z,3.80
2023-08-10T13:37:27.135Z,3.72
2023-08-10T13:39:54.257Z,3.78
2023-08-10T13:42:21.392Z,3.80
2023-08-10T13:44:48.453Z,3.60
2023-08-10T13:47:15.585Z,3.33
2023-08-10T13:49:53.419Z,3.75
2023-08-10T13:52:24.603Z,3.40
2023-08-10T13:54:52.237Z,3.80
2023-08-10T13:57:20.109Z,3.17
2023-08-10T13:59:48.588Z,3.85
2023-08-10T14:02:17.223Z,3.38
2023-08-10T14:04:44.698Z,3.65
2023-08-10T14:07:13.651Z,3.47
2023-08-10T14:09:42.104Z,3.33
2023-08-10T14:12:10.268Z,3.28
2023-08-10T14:14:37.648Z,3.30
2023-08-10T14:17:05.011Z,3.40
2023-08-10T14:19:32.195Z,3.63
2023-08-10T14:21:59.278Z,3.38
2023-08-10T14:24:26.433Z,3.72
2023-08-10T14:26:53.562Z,3.03
2023-08-10T14:29:20.648Z,3.50
2023-08-10T14:31:47.741Z,3.42
2023-08-10T14:34:15.020Z,3.03
2023-08-10T14:36:42.207Z,3.40
2023-08-10T14:39:09.239Z,3.13
2023-08-10T14:41:36.526Z,3.60
2023-08-10T14:44:03.814Z,3.30
2023-08-10T14:46:30.963Z,3.13
2023-08-10T14:49:00.104Z,2.97
2023-08-10T14:51:27.174Z,3.22
2023-08-10T14:53:54.227Z,3.25
2023-08-10T14:56:21.477Z,3.10
2023-08-10T14:58:48.600Z,2.95
2023-08-10T15:01:15.660Z,3.20
2023-08-10T15:03:43.823Z,3.05
2023-08-10T15:06:13.457Z,3.38
2023-08-10T15:08:41.030Z,3.40
2023-08-10T15:11:13.960Z,3.47
2023-08-10T15:13:41.167Z,3.97
2023-08-10T15:16:08.288Z,11.02
2023-08-10T15:18:35.626Z,10.88
2023-08-10T15:21:02.713Z,18.58
2023-08-10T15:26:00.395Z,16.10
2023-08-10T15:28:27.793Z,15.32
2023-08-10T15:30:54.873Z,6.75
2023-08-10T15:33:22.059Z,7.90
2023-08-10T15:35:49.077Z,5.22
2023-08-10T15:38:16.233Z,3.90
2023-08-10T15:40:43.596Z,3.17
2023-08-10T15:43:10.658Z,4.13
2023-08-10T15:45:38.911Z,3.63
2023-08-10T15:48:06.424Z,3.63
2023-08-10T15:50:33.655Z,3.50
2023-08-10T15:53:00.818Z,3.50
2023-08-10T15:55:27.972Z,3.45
2023-08-10T15:57:55.076Z,4.13
2023-08-10T16:00:22.650Z,4.00
2023-08-10T16:02:49.985Z,3.40
2023-08-10T16:05:17.346Z,3.40
2023-08-10T16:07:44.654Z,2.92
2023-08-10T16:10:12.418Z,3.00
2023-08-10T16:12:39.830Z,3.10
2023-08-10T16:15:08.182Z,3.33
2023-08-10T16:17:36.451Z,3.42
2023-08-10T16:20:04.597Z,2.70
2023-08-10T16:22:32.239Z,3.50
2023-08-10T16:24:59.340Z,3.13
2023-08-10T16:27:26.527Z,3.20
2023-08-10T16:29:53.666Z,3.33
2023-08-10T16:32:20.750Z,3.05
2023-08-10T16:34:47.960Z,3.15
2023-08-10T16:37:15.371Z,3.70
2023-08-10T16:39:42.735Z,3.72
2023-08-10T16:42:09.947Z,4.28
2023-08-10T16:44:37.081Z,4.50
2023-08-10T16:47:04.328Z,4.55
2023-08-10T16:49:31.548Z,4.75
2023-08-10T16:52:02.208Z,5.00
2023-08-10T16:54:29.340Z,5.05
2023-08-10T16:56:57.068Z,5.38
2023-08-10T16:59:24.246Z,4.88
2023-08-10T17:01:52.004Z,5.70
2023-08-10T17:04:20.214Z,5.45
2023-08-10T17:06:47.565Z,5.82
2023-08-10T17:09:14.854Z,5.82
2023-08-10T17:11:42.019Z,5.47
2023-08-10T17:14:09.582Z,4.95
2023-08-10T17:16:36.774Z,5.20
2023-08-10T17:19:03.952Z,5.53
2023-08-10T17:21:31.163Z,5.03
2023-08-10T17:23:58.255Z,5.20
2023-08-10T17:26:25.364Z,5.20
2023-08-10T17:28:54.060Z,5.72
2023-08-10T17:31:22.798Z,5.53
2023-08-10T17:33:49.949Z,5.53
2023-08-10T17:36:17.182Z,5.35
2023-08-10T17:38:44.303Z,5.90
2023-08-10T17:41:11.379Z,6.03
2023-08-10T17:43:38.539Z,5.38
2023-08-10T17:46:07.527Z,5.72
2023-08-10T17:48:34.660Z,4.75
2023-08-10T17:51:01.996Z,4.57
2023-08-10T17:53:29.131Z,4.50
2023-08-10T17:55:56.666Z,4.70
2023-08-10T17:58:23.929Z,4.78
2023-08-10T18:00:51.240Z,4.35
2023-08-10T18:03:19.320Z,4.18
2023-08-10T18:05:46.807Z,5.05
2023-08-10T18:08:14.131Z,5.40
2023-08-10T18:10:41.424Z,6.28
2023-08-10T18:13:08.549Z,5.78
2023-08-10T18:15:35.731Z,6.50
2023-08-10T18:18:02.980Z,7.68
2023-08-10T18:20:30.118Z,7.25
2023-08-10T18:22:57.329Z,8.20
2023-08-10T18:25:24.564Z,8.52
2023-08-10T18:27:51.660Z,8.13
2023-08-10T18:30:19.101Z,7.28
2023-08-10T18:32:46.344Z,7.80
2023-08-10T18:35:16.398Z,8.15
2023-08-10T18:37:43.549Z,8.45
2023-08-10T18:40:12.192Z,9.98
2023-08-10T18:42:40.252Z,9.00
2023-08-10T18:45:07.899Z,10.57
2023-08-10T18:47:38.069Z,9.27
2023-08-10T18:50:05.506Z,9.13
2023-08-10T18:52:32.838Z,8.23
2023-08-10T18:54:59.932Z,8.68
2023-08-10T18:57:27.190Z,9.48
2023-08-10T18:59:54.318Z,8.73
2023-08-10T19:02:21.455Z,8.35
2023-08-10T19:04:48.568Z,9.00
2023-08-10T19:07:15.666Z,8.32
2023-08-10T19:09:43.292Z,7.70
2023-08-10T19:12:10.425Z,7.90
2023-08-10T19:14:37.505Z,8.00
2023-08-10T19:17:05.143Z,8.00
2023-08-10T19:19:32.210Z,8.68
2023-08-10T19:22:02.606Z,7.15
2023-08-10T19:24:29.747Z,7.78
2023-08-10T19:26:57.839Z,8.35
2023-08-10T19:29:25.398Z,8.10
2023-08-10T19:31:53.590Z,7.35
2023-08-10T19:34:20.819Z,8.75
2023-08-10T19:36:47.948Z,7.60
2023-08-10T19:39:15.098Z,7.32
2023-08-10T19:41:42.195Z,7.22
2023-08-10T19:44:09.732Z,7.13
2023-08-10T19:46:36.944Z,8.40
2023-08-10T19:49:05.172Z,7.78
2023-08-10T19:51:32.677Z,7.05
2023-08-10T19:54:00.478Z,7.47
2023-08-10T19:56:27.644Z,7.05
2023-08-10T19:58:54.780Z,7.65
2023-08-10T20:01:22.361Z,7.53
2023-08-10T20:03:49.905Z,6.90
2023-08-10T20:06:17.072Z,6.85
2023-08-10T20:08:44.200Z,7.18
2023-08-10T20:11:12.041Z,7.25
2023-08-10T20:13:39.620Z,7.68
2023-08-10T20:16:07.099Z,7.07
2023-08-10T20:18:34.438Z,6.55
2023-08-10T20:21:01.659Z,7.05
2023-08-10T20:23:29.162Z,6.38
2023-08-10T20:25:56.296Z,7.03
2023-08-10T20:28:23.414Z,6.85
2023-08-10T20:30:50.488Z,6.75
2023-08-10T20:33:18.718Z,6.38
2023-08-10T20:35:46.733Z,6.32
2023-08-10T20:38:13.880Z,7.13
2023-08-10T20:40:41.015Z,7.38
2023-08-10T20:43:08.306Z,7.25
2023-08-10T20:45:36.137Z,7.18
2023-08-10T20:48:03.723Z,7.05
2023-08-10T20:50:31.367Z,6.60
2023-08-10T20:52:58.454Z,7.53
2023-08-10T20:55:25.735Z,7.28
2023-08-10T20:57:53.089Z,7.20
2023-08-10T21:00:20.499Z,7.80
2023-08-10T21:02:47.712Z,7.80
2023-08-10T21:05:14.866Z,7.88
2023-08-10T21:07:41.993Z,7.43
2023-08-10T21:10:09.581Z,7.50
2023-08-10T21:12:36.952Z,7.03
2023-08-10T21:15:08.884Z,7.32
2023-08-10T21:17:37.832Z,7.45
2023-08-10T21:20:07.271Z,7.72
2023-08-10T21:22:34.830Z,7.03
2023-08-10T21:25:02.035Z,6.82
2023-08-10T21:27:31.459Z,7.10
2023-08-10T21:29:58.650Z,7.50
2023-08-10T21:32:25.723Z,7.13
2023-08-10T21:34:52.785Z,7.30
2023-08-10T21:37:20.140Z,7.20
2023-08-10T21:39:47.206Z,6.82
2023-08-10T21:42:14.660Z,6.25
2023-08-10T21:44:41.864Z,6.55
2023-08-10T21:47:09.263Z,6.45
2023-08-10T21:49:36.692Z,6.50
2023-08-10T21:52:05.434Z,6.97
2023-08-10T21:54:32.512Z,7.18
2023-08-10T21:57:02.653Z,6.47
2023-08-10T21:59:33.587Z,6.57
2023-08-10T22:02:01.001Z,6.45
2023-08-10T22:04:28.166Z,6.55
2023-08-10T22:06:55.274Z,6.40
2023-08-10T22:09:22.583Z,6.53
2023-08-10T22:11:49.658Z,6.70
2023-08-10T22:14:16.794Z,7.13
2023-08-10T22:16:44.131Z,6.35
2023-08-10T22:19:13.941Z,6.15
2023-08-10T22:21:41.193Z,6.82
2023-08-10T22:24:08.286Z,6.72
2023-08-10T22:26:35.377Z,6.90
2023-08-10T22:29:05.463Z,7.40
2023-08-10T22:31:33.156Z,7.05
2023-08-10T22:34:00.208Z,6.88
2023-08-10T22:36:27.659Z,6.45
2023-08-10T22:38:54.870Z,6.63
2023-08-10T22:41:22.697Z,6.72
2023-08-10T22:43:49.775Z,7.00
2023-08-10T22:46:17.024Z,6.63
2023-08-10T22:48:44.199Z,7.05
2023-08-10T22:51:12.430Z,6.40
2023-08-10T22:53:39.704Z,5.95
2023-08-10T22:56:06.843Z,6.43
2023-08-10T22:58:34.487Z,7.00
2023-08-10T23:01:02.078Z,6.68
2023-08-10T23:03:29.286Z,6.65
2023-08-10T23:05:56.470Z,7.60
2023-08-10T23:08:23.625Z,7.35
2023-08-10T23:10:50.802Z,6.63
2023-08-10T23:13:18.804Z,7.75
2023-08-10T23:15:46.253Z,7.45
2023-08-10T23:18:13.506Z,7.25
2023-08-10T23:20:41.685Z,6.78
2023-08-10T23:23:08.962Z,7.20
2023-08-10T23:25:38.087Z,7.45
2023-08-10T23:28:05.634Z,7.47
2023-08-10T23:30:32.710Z,7.43
2023-08-10T23:32:59.956Z,6.68
2023-08-10T23:35:28.088Z,6.93
2023-08-10T23:37:57.449Z,6.43
2023-08-10T23:40:24.895Z,6.75
2023-08-10T23:42:52.002Z,7.00
2023-08-10T23:45:19.532Z,6.10
2023-08-10T23:47:47.461Z,6.13
2023-08-10T23:50:14.752Z,5.85
2023-08-10T23:52:44.143Z,6.45
2023-08-10T23:55:11.538Z,6.40
2023-08-10T23:57:38.958Z,6.55
